Terminal Aerodrome Forecast
Issued by NWS Mt. Holly, NJ

Home | Current Version | Previous Version | Text Only | Print | Product List | Glossary On
Versions: 1 2 3 4 5 6 7 8 9 10 11 12 13 14 15 16 17 18 19 20 21 22 23
887
FTUS41 KPHI 300110 AAA
TAFPHL
TAF AMD
KPHL 300110Z 3001/3106 01012KT P6SM FEW060
     FM300400 02006KT P6SM SCT250
     FM301600 08006KT P6SM SCT050
     FM302100 14006KT P6SM FEW050=

USA.gov is the U.S. government's official web portal to all federal, state and local government web resources and services.